Time;durP1;ratioP1;P1;durP2;ratioP2;P2;SDS_P1;SDS_P2;PMS_P1;PMS_P2;Temp;Humidity;BMP_temperature;BMP_pressure;BME280_temperature;BME280_humidity;BME280_pressure;Samples;Min_cycle;Max_cycle;Signal;HPM_P1;HPM_P2
2023/01/21 00:00:22;;;;;;;47.58;22.50;;;-0.90;99.90;;;;;;5153689;27;20069;-59
2023/01/21 00:02:48;;;;;;;51.50;22.10;;;-0.90;99.90;;;;;;5151234;27;20034;-59
2023/01/21 00:05:15;;;;;;;40.13;17.83;;;-0.90;99.90;;;;;;5149842;27;20100;-59
2023/01/21 00:07:42;;;;;;;54.88;23.55;;;-0.80;99.90;;;;;;5152026;27;20555;-59
2023/01/21 00:10:09;;;;;;;52.13;22.38;;;-0.80;99.90;;;;;;5147702;27;20095;-59
2023/01/21 00:12:37;;;;;;;43.28;16.35;;;-0.70;99.90;;;;;;5150869;27;20108;-59
2023/01/21 00:15:04;;;;;;;34.25;14.55;;;-0.80;99.90;;;;;;5152976;27;20035;-59
2023/01/21 00:17:34;;;;;;;34.80;15.45;;;-0.80;99.90;;;;;;5151994;27;20491;-59
2023/01/21 00:20:03;;;;;;;31.33;14.63;;;-0.80;99.90;;;;;;5152583;27;20448;-59
2023/01/21 00:22:30;;;;;;;33.25;15.13;;;-0.70;99.90;;;;;;5144168;27;20042;-59
2023/01/21 00:24:57;;;;;;;32.70;15.50;;;-0.60;99.90;;;;;;5164333;27;20448;-59
2023/01/21 00:27:24;;;;;;;31.92;14.98;;;-0.60;99.90;;;;;;5159754;27;20035;-59
2023/01/21 00:29:51;;;;;;;22.70;10.32;;;-0.60;99.90;;;;;;5154156;27;20493;-61
2023/01/21 00:32:18;;;;;;;24.05;10.52;;;-0.60;99.90;;;;;;5139173;27;20095;-62
2023/01/21 00:34:45;;;;;;;36.92;16.92;;;-0.60;99.90;;;;;;5164411;27;20053;-62
2023/01/21 00:37:12;;;;;;;37.28;16.48;;;-0.60;99.90;;;;;;5152846;27;20030;-62
2023/01/21 00:39:41;;;;;;;35.08;15.82;;;-0.60;99.90;;;;;;5157229;27;20087;-62
2023/01/21 00:42:10;;;;;;;38.97;16.40;;;-0.60;99.90;;;;;;5159958;27;20069;-62
2023/01/21 00:44:37;;;;;;;37.25;16.35;;;-0.60;99.90;;;;;;5161660;27;20507;-61
2023/01/21 00:47:04;;;;;;;38.30;16.73;;;-0.60;99.90;;;;;;5150478;27;20042;-59
2023/01/21 00:49:31;;;;;;;36.80;16.60;;;-0.60;99.90;;;;;;5148148;27;20038;-61
2023/01/21 00:51:58;;;;;;;;;;;-0.60;99.90;;;;;;5164735;27;20034;-61
2023/01/21 00:54:25;;;;;;;37.92;16.45;;;-0.60;99.90;;;;;;5152327;27;20419;-60
2023/01/21 00:56:52;;;;;;;38.60;16.25;;;-0.60;99.90;;;;;;5154112;27;20118;-62
2023/01/21 00:59:19;;;;;;;40.88;18.45;;;-0.60;99.90;;;;;;5168692;27;20050;-62
2023/01/21 01:01:45;;;;;;;42.58;17.75;;;-0.60;99.90;;;;;;5152975;27;20070;-61
2023/01/21 01:04:13;;;;;;;39.55;17.58;;;-0.60;99.90;;;;;;5143555;27;20043;-61
2023/01/21 01:06:39;;;;;;;41.50;18.35;;;-0.60;99.90;;;;;;5144229;27;20518;-61
2023/01/21 01:09:07;;;;;;;28.27;12.70;;;-0.60;99.90;;;;;;5163482;27;20087;-62
2023/01/21 01:11:33;;;;;;;41.13;17.60;;;-0.60;99.90;;;;;;5141027;27;20091;-60
2023/01/21 01:14:00;;;;;;;44.45;18.98;;;-0.60;99.90;;;;;;5152229;27;20038;-60
2023/01/21 01:16:27;;;;;;;44.17;19.20;;;-0.60;99.90;;;;;;5162532;27;20046;-60
2023/01/21 01:18:54;;;;;;;44.63;18.20;;;-0.70;99.90;;;;;;5155744;27;20070;-60
2023/01/21 01:21:21;;;;;;;;;;;-0.60;99.90;;;;;;5157620;27;20546;-61
2023/01/21 01:23:50;;;;;;;47.65;17.45;;;-0.60;99.90;;;;;;5167147;27;20271;-61
2023/01/21 01:26:20;;;;;;;43.55;18.20;;;-0.60;99.90;;;;;;5160580;27;20043;-60
2023/01/21 01:28:47;;;;;;;44.78;19.70;;;-0.60;99.90;;;;;;5160243;27;20546;-60
2023/01/21 01:31:15;;;;;;;;;;;-0.70;99.90;;;;;;5156748;27;20094;-60
2023/01/21 01:33:42;;;;;;;38.53;16.13;;;-0.70;99.90;;;;;;5166869;27;20343;-60
2023/01/21 01:36:19;;;;;;;43.58;18.55;;;-0.60;99.90;;;;;;5135286;22;20060;-61
2023/01/21 01:38:46;;;;;;;45.08;18.40;;;-0.60;99.90;;;;;;5084261;28;20377;-61
2023/01/21 01:41:22;;;;;;;38.85;17.40;;;-0.70;99.90;;;;;;5075577;28;20051;-61
2023/01/21 01:43:51;;;;;;;45.08;18.25;;;-0.70;99.90;;;;;;5091657;28;20481;-61
2023/01/21 01:46:19;;;;;;;42.65;17.60;;;-0.70;99.90;;;;;;5080549;28;20068;-61
2023/01/21 01:48:56;;;;;;;38.58;17.65;;;-0.60;99.90;;;;;;5072477;28;20044;-61
2023/01/21 01:51:29;;;;;;;39.25;17.40;;;-0.70;99.90;;;;;;5072284;28;20052;-61
2023/01/21 01:53:57;;;;;;;36.65;16.13;;;-0.70;99.90;;;;;;5071342;28;20056;-61
2023/01/21 01:56:23;;;;;;;;;;;-0.70;99.90;;;;;;5070967;28;20521;-61
2023/01/21 01:58:51;;;;;;;36.85;15.07;;;-0.70;99.90;;;;;;5072286;28;20015;-61
2023/01/21 02:01:18;;;;;;;36.47;15.73;;;-0.60;99.90;;;;;;5073114;28;20489;-61
2023/01/21 02:03:53;;;;;;;33.33;14.95;;;-0.70;99.90;;;;;;5062351;28;20049;-61
2023/01/21 02:06:19;;;;;;;37.90;15.88;;;-0.70;99.90;;;;;;5063468;28;20400;-61
2023/01/21 02:08:47;;;;;;;35.28;15.52;;;-0.70;99.90;;;;;;5081215;28;20036;-61
2023/01/21 02:11:15;;;;;;;;;;;-0.70;99.90;;;;;;5090829;28;20040;-61
2023/01/21 02:13:45;;;;;;;32.83;14.95;;;-0.70;99.90;;;;;;5062215;28;20340;-61
2023/01/21 02:16:32;;;;;;;39.00;15.20;;;-0.70;99.90;;;;;;5072868;28;20547;-61
2023/01/21 02:19:11;;;;;;;32.40;14.35;;;-0.70;99.90;;;;;;5072284;28;20045;-61
2023/01/21 02:22:07;;;;;;;33.47;15.60;;;-0.70;99.90;;;;;;5062481;28;20090;-61
2023/01/21 02:24:54;;;;;;;33.70;15.07;;;-0.60;99.90;;;;;;5085001;28;20047;-61
2023/01/21 02:27:46;;;;;;;33.20;13.68;;;-0.70;99.90;;;;;;5092156;28;20109;-61
2023/01/21 02:30:47;;;;;;;34.53;14.82;;;-0.70;99.90;;;;;;5068152;28;20036;-61
2023/01/21 02:33:23;;;;;;;33.17;15.05;;;-0.70;99.90;;;;;;5070078;28;20667;-60
2023/01/21 02:36:24;;;;;;;35.25;16.23;;;-0.70;99.90;;;;;;5072374;28;20539;-61
2023/01/21 02:39:03;;;;;;;38.00;15.80;;;-0.70;99.90;;;;;;5061132;28;20078;-61
2023/01/21 02:41:40;;;;;;;36.22;14.77;;;-0.70;99.90;;;;;;5065581;28;20041;-61
2023/01/21 02:44:39;;;;;;;36.92;15.75;;;-0.70;99.90;;;;;;5065202;28;20037;-61
2023/01/21 02:47:27;;;;;;;36.42;16.23;;;-0.80;99.90;;;;;;5064029;28;20041;-62
2023/01/21 02:50:11;;;;;;;41.65;17.10;;;-0.80;99.90;;;;;;5061313;28;20431;-61
2023/01/21 02:52:38;;;;;;;42.67;17.40;;;-0.80;99.90;;;;;;5066230;28;20049;-61
2023/01/21 02:55:12;;;;;;;32.75;11.90;;;-0.80;99.90;;;;;;5071803;28;20044;-62
2023/01/21 02:57:45;;;;;;;40.17;16.58;;;-0.80;99.90;;;;;;5070450;28;20102;-62
2023/01/21 03:00:43;;;;;;;36.90;16.08;;;-0.80;99.90;;;;;;5068777;28;20436;-62
2023/01/21 03:03:47;;;;;;;39.90;16.95;;;-0.90;99.90;;;;;;5028182;28;20057;-61
2023/01/21 03:06:17;;;;;;;39.42;16.60;;;-0.90;99.90;;;;;;5065957;28;20048;-61
2023/01/21 03:09:00;;;;;;;36.90;14.45;;;-0.90;99.90;;;;;;5072127;28;20074;-61
2023/01/21 03:11:28;;;;;;;37.80;15.68;;;-0.90;99.90;;;;;;5078412;28;20040;-61
2023/01/21 03:16:58;;;;;;;41.10;16.08;;;-0.90;99.90;;;;;;5065167;28;19948;-61
2023/01/21 03:19:31;;;;;;;37.38;16.98;;;-1.00;99.90;;;;;;5070035;28;20041;-62
2023/01/21 03:22:01;;;;;;;41.83;17.45;;;-1.00;99.90;;;;;;5070814;28;20496;-62
2023/01/21 03:24:28;;;;;;;37.63;16.55;;;-1.00;99.90;;;;;;5064905;28;20040;-62
2023/01/21 03:26:57;;;;;;;39.83;17.48;;;-1.00;99.90;;;;;;5070256;28;20082;-62
2023/01/21 03:29:27;;;;;;;39.65;16.85;;;-1.00;99.90;;;;;;5070177;28;20050;-62
2023/01/21 03:31:58;;;;;;;45.47;16.48;;;-1.00;99.90;;;;;;5065392;28;20052;-62
2023/01/21 03:34:29;;;;;;;37.55;16.45;;;-1.00;99.90;;;;;;5070807;28;20275;-62
2023/01/21 03:37:06;;;;;;;46.08;17.73;;;-1.10;99.90;;;;;;5071419;28;20074;-62
2023/01/21 03:39:50;;;;;;;28.25;11.95;;;-1.10;99.90;;;;;;5063513;28;20044;-62
2023/01/21 03:42:17;;;;;;;35.22;15.35;;;-1.10;99.90;;;;;;5071097;28;20098;-62
2023/01/21 03:44:45;;;;;;;45.40;16.75;;;-1.10;99.90;;;;;;5070296;28;20033;-62
2023/01/21 03:47:28;;;;;;;36.75;15.80;;;-1.20;99.90;;;;;;5065878;28;20086;-62
2023/01/21 03:50:09;;;;;;;41.25;17.17;;;-1.20;99.90;;;;;;5070260;28;20044;-61
2023/01/21 03:52:43;;;;;;;39.03;16.50;;;-1.20;99.90;;;;;;5070128;28;20463;-62
2023/01/21 03:55:12;;;;;;;45.35;17.92;;;-1.20;99.90;;;;;;5064858;28;20049;-62
2023/01/21 03:57:38;;;;;;;41.50;17.15;;;-1.20;99.90;;;;;;5070900;28;20075;-62
2023/01/21 04:00:06;;;;;;;40.40;16.75;;;-1.30;99.90;;;;;;5070113;28;20129;-62
2023/01/21 04:02:33;;;;;;;37.90;15.27;;;-1.30;99.90;;;;;;5069019;28;20074;-61
2023/01/21 04:05:00;;;;;;;40.28;16.52;;;-1.30;99.90;;;;;;5065458;28;20040;-62
2023/01/21 04:07:27;;;;;;;39.53;15.73;;;-1.30;99.90;;;;;;5070548;28;20033;-62
2023/01/21 04:09:53;;;;;;;42.80;17.38;;;-1.30;99.90;;;;;;5088390;28;20040;-62
2023/01/21 04:12:20;;;;;;;46.42;17.15;;;-1.30;99.90;;;;;;5076002;28;20045;-61
2023/01/21 04:14:47;;;;;;;35.90;14.98;;;-1.30;99.90;;;;;;5070579;28;20055;-61
2023/01/21 04:17:13;;;;;;;39.65;16.15;;;-1.20;99.90;;;;;;5069925;28;20048;-61
2023/01/21 04:19:40;;;;;;;32.72;15.82;;;-1.30;99.90;;;;;;5070559;28;20106;-62
2023/01/21 04:22:07;;;;;;;38.35;15.48;;;-1.30;99.90;;;;;;5067140;28;20064;-61
2023/01/21 04:24:34;;;;;;;35.42;14.93;;;-1.30;99.90;;;;;;5070871;28;20128;-61
2023/01/21 04:27:00;;;;;;;39.67;16.92;;;-1.30;99.90;;;;;;5069692;28;20440;-62
2023/01/21 04:29:27;;;;;;;37.35;15.48;;;-1.30;99.90;;;;;;5069085;28;20037;-61
2023/01/21 04:31:54;;;;;;;33.83;11.88;;;-1.30;99.90;;;;;;5069321;28;20047;-61
2023/01/21 04:34:21;;;;;;;35.90;15.38;;;-1.30;99.90;;;;;;5070087;28;20057;-61
2023/01/21 04:36:47;;;;;;;35.55;14.20;;;-1.30;99.90;;;;;;5069911;28;20044;-61
2023/01/21 04:39:14;;;;;;;26.45;11.23;;;-1.30;99.90;;;;;;5076337;28;20040;-61
2023/01/21 04:41:41;;;;;;;38.92;16.95;;;-1.30;99.90;;;;;;5080277;28;20032;-61
2023/01/21 04:44:08;;;;;;;36.42;15.23;;;-1.30;99.90;;;;;;5067586;28;20062;-61
2023/01/21 04:46:35;;;;;;;21.90;8.70;;;-1.30;99.90;;;;;;5069035;28;20086;-61
2023/01/21 04:49:01;;;;;;;32.40;13.48;;;-1.30;99.90;;;;;;5070799;28;20048;-61
2023/01/21 04:51:28;;;;;;;40.03;16.95;;;-1.30;99.90;;;;;;5065031;28;20492;-62
2023/01/21 04:53:55;;;;;;;46.95;17.50;;;-1.30;99.90;;;;;;5074596;28;20071;-61
2023/01/21 04:56:22;;;;;;;40.90;15.75;;;-1.30;99.90;;;;;;5071144;28;20037;-62
2023/01/21 04:58:48;;;;;;;38.42;15.60;;;-1.30;99.90;;;;;;5074735;28;20438;-61
2023/01/21 05:01:15;;;;;;;40.40;15.10;;;-1.30;99.90;;;;;;5072796;28;20443;-62
2023/01/21 05:03:42;;;;;;;35.67;14.40;;;-1.30;99.90;;;;;;5073167;28;20098;-62
2023/01/21 05:06:09;;;;;;;33.20;13.57;;;-1.30;99.90;;;;;;5071481;28;20048;-61
2023/01/21 05:08:35;;;;;;;25.42;10.70;;;-1.30;99.90;;;;;;5085083;28;20048;-61
2023/01/21 05:11:02;;;;;;;25.20;9.68;;;-1.30;99.90;;;;;;5069308;28;20082;-62
2023/01/21 05:13:29;;;;;;;15.30;6.30;;;-1.30;99.90;;;;;;5074014;28;20500;-61
2023/01/21 05:16:02;;;;;;;21.58;7.57;;;-1.30;99.90;;;;;;5072902;28;20040;-62
2023/01/21 05:18:29;;;;;;;25.27;9.10;;;-1.20;99.90;;;;;;5062038;28;20045;-61
2023/01/21 05:20:55;;;;;;;22.23;9.65;;;-1.30;99.90;;;;;;5054057;28;20051;-61
2023/01/21 05:23:22;;;;;;;16.38;7.15;;;-1.30;99.90;;;;;;5071074;28;20079;-61
2023/01/21 05:25:49;;;;;;;29.80;10.27;;;-1.30;99.90;;;;;;5067282;28;20090;-62
2023/01/21 05:28:16;;;;;;;25.40;11.48;;;-1.30;99.90;;;;;;5072322;28;20473;-61
2023/01/21 05:30:42;;;;;;;28.73;11.15;;;-1.30;99.90;;;;;;5071158;28;20044;-61
2023/01/21 05:33:10;;;;;;;26.95;10.93;;;-1.40;99.90;;;;;;5070013;28;20072;-61
2023/01/21 05:35:37;;;;;;;19.33;8.20;;;-1.40;99.90;;;;;;5072695;28;20454;-62
2023/01/21 05:38:03;;;;;;;34.33;12.55;;;-1.40;99.90;;;;;;5073610;28;20036;-62
2023/01/21 05:40:30;;;;;;;34.42;13.50;;;-1.40;99.90;;;;;;5070323;28;20048;-61
2023/01/21 05:42:57;;;;;;;41.70;14.93;;;-1.40;99.90;;;;;;5073135;28;20068;-61
2023/01/21 05:45:24;;;;;;;42.05;16.02;;;-1.40;99.90;;;;;;5072236;28;20044;-62
2023/01/21 05:47:50;;;;;;;35.13;14.18;;;-1.40;99.90;;;;;;5068918;28;20090;-62
2023/01/21 05:50:17;;;;;;;29.45;12.60;;;-1.40;99.90;;;;;;5071047;28;20512;-61
2023/01/21 05:52:44;;;;;;;30.38;11.32;;;-1.40;99.90;;;;;;5072347;28;20048;-61
2023/01/21 05:55:11;;;;;;;33.55;12.57;;;-1.40;99.90;;;;;;5072988;28;20040;-61
2023/01/21 05:57:38;;;;;;;33.05;12.20;;;-1.50;99.90;;;;;;5065944;28;20047;-61
2023/01/21 06:00:05;;;;;;;21.05;8.68;;;-1.50;99.90;;;;;;5072630;28;20040;-61
2023/01/21 06:02:32;;;;;;;36.92;12.52;;;-1.50;99.90;;;;;;5069408;28;20490;-61
2023/01/21 06:04:59;;;;;;;31.73;11.15;;;-1.50;99.90;;;;;;5070728;28;20060;-61
2023/01/21 06:07:25;;;;;;;22.58;9.55;;;-1.40;99.90;;;;;;5072897;28;20040;-62
2023/01/21 06:09:52;;;;;;;32.75;12.90;;;-1.40;99.90;;;;;;5071001;28;20044;-61
2023/01/21 06:12:19;;;;;;;36.45;14.13;;;-1.40;99.90;;;;;;5070343;28;20052;-62
2023/01/21 06:14:45;;;;;;;32.70;12.57;;;-1.40;99.90;;;;;;5072606;28;20040;-62
2023/01/21 06:17:12;;;;;;;46.10;15.40;;;-1.40;99.90;;;;;;5072676;28;20044;-62
2023/01/21 06:19:39;;;;;;;33.90;12.65;;;-1.40;99.90;;;;;;5072786;28;20045;-61
2023/01/21 06:22:06;;;;;;;39.03;13.30;;;-1.40;99.90;;;;;;5071788;28;20032;-61
2023/01/21 06:24:33;;;;;;;30.20;11.32;;;-1.40;99.90;;;;;;5084140;28;20049;-62
2023/01/21 06:26:59;;;;;;;29.50;12.00;;;-1.40;99.90;;;;;;5073312;28;20484;-61
2023/01/21 06:29:26;;;;;;;31.75;11.13;;;-1.40;99.90;;;;;;5072643;28;20063;-61
2023/01/21 06:31:53;;;;;;;31.45;12.18;;;-1.40;99.90;;;;;;5072034;28;20048;-61
2023/01/21 06:34:20;;;;;;;30.90;13.18;;;-1.40;99.90;;;;;;5069970;28;20401;-62
2023/01/21 06:36:47;;;;;;;18.08;7.47;;;-1.40;99.90;;;;;;5072167;28;20048;-61
2023/01/21 06:39:13;;;;;;;33.55;12.73;;;-1.40;99.90;;;;;;5072050;28;20049;-62
2023/01/21 06:41:40;;;;;;;33.00;13.57;;;-1.40;99.90;;;;;;5071480;28;20063;-62
2023/01/21 06:44:07;;;;;;;31.95;12.75;;;-1.40;99.90;;;;;;5059989;28;20044;-61
2023/01/21 06:46:33;;;;;;;32.47;11.88;;;-1.40;99.90;;;;;;5071329;28;20039;-61
2023/01/21 06:49:00;;;;;;;27.85;10.05;;;-1.40;99.90;;;;;;5072049;28;20439;-61
2023/01/21 06:51:27;;;;;;;34.20;13.95;;;-1.50;99.90;;;;;;5069153;28;20036;-61
2023/01/21 06:53:54;;;;;;;36.53;14.38;;;-1.50;99.90;;;;;;5072516;28;20390;-61
2023/01/21 06:56:21;;;;;;;22.25;9.00;;;-1.50;99.90;;;;;;5070333;28;20124;-61
2023/01/21 06:58:47;;;;;;;;;;;-1.50;99.90;;;;;;5073182;28;20112;-62
2023/01/21 07:01:14;;;;;;;29.88;12.57;;;-1.50;99.90;;;;;;5071115;28;19955;-62
2023/01/21 07:03:41;;;;;;;26.45;10.43;;;-1.50;99.90;;;;;;5085372;28;20040;-61
2023/01/21 07:06:08;;;;;;;34.95;13.52;;;-1.50;99.90;;;;;;5068692;28;20050;-62
2023/01/21 07:08:34;;;;;;;33.67;13.40;;;-1.50;99.90;;;;;;5072339;28;20102;-61
2023/01/21 07:11:01;;;;;;;30.70;12.98;;;-1.50;99.90;;;;;;5070924;28;20477;-62
2023/01/21 07:13:28;;;;;;;31.95;13.35;;;-1.50;99.90;;;;;;5071597;28;20443;-62
2023/01/21 07:15:59;;;;;;;34.05;13.82;;;-1.50;99.90;;;;;;5075415;28;20098;-61
2023/01/21 07:18:26;;;;;;;28.80;13.48;;;-1.50;99.90;;;;;;5074807;28;20040;-62
2023/01/21 07:20:53;;;;;;;31.08;12.77;;;-1.60;99.90;;;;;;5070701;28;20090;-61
2023/01/21 07:23:20;;;;;;;26.35;10.80;;;-1.60;99.90;;;;;;5063168;28;20091;-62
2023/01/21 07:25:47;;;;;;;35.22;12.57;;;-1.60;99.90;;;;;;5070512;28;20090;-62
2023/01/21 07:28:14;;;;;;;31.52;12.73;;;-1.50;99.90;;;;;;5070435;28;20040;-61
2023/01/21 07:30:41;;;;;;;29.77;12.00;;;-1.60;99.90;;;;;;5068121;28;20378;-61
2023/01/21 07:33:09;;;;;;;29.85;12.27;;;-1.60;99.90;;;;;;5060507;28;20059;-62
2023/01/21 07:35:36;;;;;;;33.58;11.32;;;-1.60;99.90;;;;;;5088312;22;20098;-61
2023/01/21 07:38:03;;;;;;;32.85;12.70;;;-1.60;99.90;;;;;;5085607;28;20485;-60
2023/01/21 07:40:29;;;;;;;44.40;12.90;;;-1.70;99.90;;;;;;5089932;28;20594;-60
2023/01/21 07:42:56;;;;;;;33.10;11.93;;;-1.70;99.90;;;;;;5091460;28;20051;-61
2023/01/21 07:45:24;;;;;;;35.40;11.82;;;-1.60;99.90;;;;;;5082782;28;20032;-60
2023/01/21 07:47:51;;;;;;;37.75;12.38;;;-1.70;99.90;;;;;;5085904;28;20486;-61
2023/01/21 07:50:17;;;;;;;29.00;9.20;;;-1.70;99.90;;;;;;5074635;28;20174;-61
2023/01/21 07:52:44;;;;;;;30.15;12.30;;;-1.70;99.90;;;;;;5091059;28;20047;-61
2023/01/21 07:55:11;;;;;;;36.88;12.60;;;-1.70;99.90;;;;;;5077332;28;20074;-61
2023/01/21 07:57:38;;;;;;;;;;;-1.70;99.90;;;;;;5071664;28;20068;-61
2023/01/21 08:00:05;;;;;;;33.20;12.95;;;-1.70;99.90;;;;;;5067914;28;19950;-61
2023/01/21 08:02:37;;;;;;;29.27;12.27;;;-1.70;99.90;;;;;;5060921;28;20045;-61
2023/01/21 08:05:05;;;;;;;29.75;11.98;;;-1.60;99.90;;;;;;5071120;28;20044;-61
2023/01/21 08:07:32;;;;;;;28.30;11.43;;;-1.60;99.90;;;;;;5074196;28;20081;-61
2023/01/21 08:09:58;;;;;;;29.95;11.35;;;-1.60;99.90;;;;;;5073969;28;20045;-60
2023/01/21 08:12:25;;;;;;;28.20;11.00;;;-1.60;99.90;;;;;;5052465;28;20036;-61
2023/01/21 08:14:53;;;;;;;28.30;11.43;;;-1.50;99.90;;;;;;5070442;28;20060;-60
2023/01/21 08:17:20;;;;;;;29.13;10.73;;;-1.40;99.90;;;;;;5067263;28;20041;-61
2023/01/21 08:19:46;;;;;;;30.52;11.43;;;-1.50;99.90;;;;;;5087172;28;20036;-61
2023/01/21 08:22:13;;;;;;;33.20;12.95;;;-1.50;99.90;;;;;;5071323;28;20438;-61
2023/01/21 08:24:40;;;;;;;23.02;9.65;;;-1.40;99.90;;;;;;5066438;28;20041;-61
2023/01/21 08:27:06;;;;;;;37.17;14.93;;;-1.30;99.90;;;;;;5067345;28;20514;-61
2023/01/21 08:29:33;;;;;;;45.60;16.13;;;-1.40;99.90;;;;;;5069994;28;20060;-61
2023/01/21 08:32:00;;;;;;;49.60;16.60;;;-1.20;99.90;;;;;;5073156;28;20040;-61
2023/01/21 08:34:27;;;;;;;42.22;15.68;;;-1.20;99.90;;;;;;5070712;28;20098;-60
2023/01/21 08:36:54;;;;;;;38.45;15.65;;;-1.20;99.90;;;;;;5069662;28;20459;-61
2023/01/21 08:39:20;;;;;;;44.90;16.23;;;-1.10;99.90;;;;;;5068692;28;20525;-61
2023/01/21 08:41:48;;;;;;;37.58;13.57;;;-1.00;99.90;;;;;;5054923;28;20040;-61
2023/01/21 08:44:14;;;;;;;38.65;14.18;;;-1.00;99.90;;;;;;5074252;28;20043;-61
2023/01/21 08:46:41;;;;;;;44.20;14.35;;;-0.90;99.90;;;;;;5088676;28;20109;-61
2023/01/21 08:49:08;;;;;;;37.40;15.30;;;-0.80;99.90;;;;;;5070021;28;20481;-60
2023/01/21 08:51:34;;;;;;;34.65;14.93;;;-0.70;99.90;;;;;;5066916;28;20102;-61
2023/01/21 08:54:05;;;;;;;37.50;14.43;;;-0.70;99.90;;;;;;5084024;28;20519;-61
2023/01/21 08:56:32;;;;;;;46.67;15.80;;;-0.70;99.90;;;;;;5085971;28;20102;-61
2023/01/21 08:58:59;;;;;;;37.80;14.45;;;-0.70;99.90;;;;;;5069423;28;20107;-61
2023/01/21 09:01:25;;;;;;;31.45;13.75;;;-0.70;99.90;;;;;;5060689;28;20489;-61
2023/01/21 09:03:57;;;;;;;34.03;16.08;;;-0.70;99.90;;;;;;5090519;28;20039;-61
2023/01/21 09:06:25;;;;;;;41.83;14.48;;;-0.70;99.90;;;;;;5083478;28;20040;-60
2023/01/21 09:08:51;;;;;;;35.42;15.32;;;-0.70;99.90;;;;;;5070751;28;20555;-61
2023/01/21 09:11:18;;;;;;;30.63;12.18;;;-0.70;99.90;;;;;;5066196;28;20037;-60
2023/01/21 09:13:45;;;;;;;33.47;14.57;;;-0.70;99.90;;;;;;5089314;28;20577;-60
2023/01/21 09:16:18;;;;;;;45.35;15.77;;;-0.70;99.90;;;;;;5081539;28;20048;-60
2023/01/21 09:18:46;;;;;;;36.88;14.82;;;-0.70;99.90;;;;;;5079807;28;20048;-60
2023/01/21 09:21:13;;;;;;;35.90;14.98;;;-0.60;99.90;;;;;;5080523;28;20047;-60
2023/01/21 09:23:40;;;;;;;37.95;15.68;;;-0.60;99.90;;;;;;5069389;28;20098;-60
2023/01/21 09:26:19;;;;;;;38.30;15.80;;;-0.60;99.90;;;;;;5064772;28;20041;-60
2023/01/21 09:28:52;;;;;;;46.95;16.38;;;-0.60;99.90;;;;;;5090134;28;20063;-60
2023/01/21 09:31:20;;;;;;;45.05;16.08;;;-0.60;99.90;;;;;;5076725;28;20044;-60
2023/01/21 09:33:50;;;;;;;34.95;14.77;;;-0.50;99.90;;;;;;5090178;28;20048;-60
2023/01/21 09:36:21;;;;;;;41.50;14.60;;;-0.40;99.90;;;;;;5074480;28;20045;-60
2023/01/21 09:38:49;;;;;;;40.03;15.45;;;-0.40;99.90;;;;;;5071702;28;20036;-60
2023/01/21 09:41:40;;;;;;;33.60;16.05;;;-0.40;99.90;;;;;;5080850;28;20078;-60
2023/01/21 09:44:13;;;;;;;34.00;14.13;;;-0.30;99.90;;;;;;5093663;28;20121;-60
2023/01/21 09:47:04;;;;;;;37.20;14.68;;;-0.30;99.90;;;;;;5072128;28;20033;-60
2023/01/21 09:49:40;;;;;;;41.90;15.18;;;-0.40;99.90;;;;;;5072019;28;20706;-60
2023/01/21 09:52:34;;;;;;;34.95;14.32;;;-0.40;99.90;;;;;;5057122;28;20106;-60
2023/01/21 09:55:01;;;;;;;36.00;14.93;;;-0.30;99.90;;;;;;5067317;28;20707;-60
2023/01/21 09:57:34;;;;;;;38.03;13.85;;;-0.40;99.90;;;;;;5090406;28;20032;-60
2023/01/21 10:00:36;;;;;;;39.00;15.05;;;-0.40;99.90;;;;;;5079096;28;20472;-60
2023/01/21 10:03:09;;;;;;;44.63;15.85;;;-0.40;99.90;;;;;;5075801;28;20044;-60
2023/01/21 10:05:59;;;;;;;33.47;13.98;;;-0.40;99.90;;;;;;5078096;28;20036;-60
2023/01/21 10:08:31;;;;;;;38.53;13.48;;;-0.30;99.90;;;;;;5067988;28;20091;-60
2023/01/21 10:11:21;;;;;;;35.88;14.57;;;-0.30;99.90;;;;;;5068756;28;20040;-60
2023/01/21 10:14:25;;;;;;;36.13;14.55;;;-0.20;99.90;;;;;;5058758;28;20827;-60
2023/01/21 10:16:55;;;;;;;38.53;14.93;;;-0.10;99.90;;;;;;5085483;28;20060;-60
2023/01/21 10:19:32;;;;;;;38.83;13.43;;;-0.10;99.90;;;;;;5079735;28;20041;-60
2023/01/21 10:22:12;;;;;;;36.20;14.57;;;-0.10;99.90;;;;;;5070220;28;20068;-61
2023/01/21 10:24:50;;;;;;;31.42;13.38;;;0.00;99.90;;;;;;5075268;28;20068;-60
2023/01/21 10:27:20;;;;;;;32.72;13.88;;;0.10;99.90;;;;;;5072239;28;20037;-60
2023/01/21 10:29:56;;;;;;;32.78;13.82;;;0.20;99.90;;;;;;5066654;28;20041;-60
2023/01/21 10:32:26;;;;;;;35.22;12.93;;;0.20;99.90;;;;;;5070065;28;20047;-60
2023/01/21 10:34:55;;;;;;;28.27;12.75;;;0.20;99.90;;;;;;5078080;28;20051;-61
2023/01/21 10:37:42;;;;;;;31.73;12.43;;;0.20;99.90;;;;;;5081316;28;20060;-60
2023/01/21 10:40:17;;;;;;;30.08;12.65;;;0.20;99.90;;;;;;5070030;28;20055;-60
2023/01/21 10:42:58;;;;;;;29.83;13.40;;;0.20;99.90;;;;;;5089243;28;20055;-60
2023/01/21 10:45:43;;;;;;;30.80;12.50;;;0.20;99.90;;;;;;5092110;28;20043;-60
2023/01/21 10:48:25;;;;;;;29.75;11.57;;;0.20;99.90;;;;;;5079672;28;20386;-61
2023/01/21 10:51:19;;;;;;;30.02;12.75;;;0.10;99.90;;;;;;5084813;28;20064;-60
2023/01/21 10:54:05;;;;;;;35.67;12.77;;;0.00;99.90;;;;;;5068342;28;20049;-60
2023/01/21 10:57:00;;;;;;;30.77;12.35;;;0.00;99.90;;;;;;5060295;28;20041;-60
2023/01/21 10:59:30;;;;;;;37.55;13.20;;;-0.10;99.90;;;;;;5069860;28;20094;-61
2023/01/21 11:02:08;;;;;;;33.55;13.68;;;0.00;99.90;;;;;;5058176;28;20065;-60
2023/01/21 11:04:38;;;;;;;30.27;12.40;;;-0.10;99.90;;;;;;5054374;28;20045;-60
2023/01/21 11:07:10;;;;;;;35.85;13.00;;;-0.10;99.90;;;;;;5054655;28;20323;-60
2023/01/21 11:09:41;;;;;;;32.28;12.27;;;0.00;99.90;;;;;;5056836;28;20849;-60
2023/01/21 11:12:12;;;;;;;32.28;12.70;;;0.10;99.90;;;;;;5058524;28;20112;-60
2023/01/21 11:14:38;;;;;;;26.90;11.35;;;0.10;99.90;;;;;;5067199;28;20045;-60
2023/01/21 11:17:05;;;;;;;29.05;11.50;;;0.20;99.90;;;;;;5070780;28;20045;-60
2023/01/21 11:19:32;;;;;;;30.58;12.45;;;0.20;99.90;;;;;;5071133;28;20037;-60
2023/01/21 11:22:11;;;;;;;32.92;12.25;;;0.30;99.90;;;;;;5070532;28;20040;-60
2023/01/21 11:24:42;;;;;;;28.30;11.82;;;0.40;99.90;;;;;;5079181;28;20044;-60
2023/01/21 11:27:21;;;;;;;29.88;12.40;;;0.50;99.90;;;;;;5072197;28;20090;-60
2023/01/21 11:29:49;;;;;;;33.03;13.10;;;0.40;99.90;;;;;;5058957;28;20119;-60
2023/01/21 11:32:19;;;;;;;34.78;12.90;;;0.50;99.90;;;;;;5056996;28;20053;-60
2023/01/21 11:34:55;;;;;;;30.30;12.98;;;0.70;99.90;;;;;;5043386;28;20036;-61
2023/01/21 11:37:24;;;;;;;29.45;12.13;;;0.80;99.90;;;;;;5057877;28;20048;-60
2023/01/21 11:39:56;;;;;;;29.38;12.45;;;0.80;99.90;;;;;;5059124;28;20133;-60
2023/01/21 11:42:23;;;;;;;29.42;12.55;;;0.90;99.90;;;;;;5062029;28;20052;-60
2023/01/21 11:44:56;;;;;;;32.55;12.48;;;0.80;99.90;;;;;;5060426;28;20036;-60
2023/01/21 11:47:47;;;;;;;28.65;12.13;;;0.80;99.90;;;;;;5061038;28;20386;-60
2023/01/21 11:50:26;;;;;;;36.42;12.48;;;0.80;99.90;;;;;;5059205;28;20073;-60
2023/01/21 11:53:05;;;;;;;35.17;13.05;;;0.80;99.90;;;;;;5061116;28;20090;-60
2023/01/21 11:55:49;;;;;;;30.67;12.43;;;0.90;99.90;;;;;;5060841;28;20075;-60
2023/01/21 11:58:25;;;;;;;25.70;12.60;;;1.00;99.90;;;;;;5061399;28;20460;-60
2023/01/21 12:00:54;;;;;;;24.88;12.57;;;0.90;99.90;;;;;;5059256;28;20094;-60
2023/01/21 12:03:36;;;;;;;31.05;13.00;;;0.90;99.90;;;;;;5060402;28;20048;-60
2023/01/21 12:06:05;;;;;;;27.13;11.75;;;0.90;99.90;;;;;;5063359;28;20033;-60
2023/01/21 12:08:35;;;;;;;35.95;12.73;;;0.80;99.90;;;;;;5059867;28;20073;-61
2023/01/21 12:11:05;;;;;;;31.08;13.60;;;0.80;99.90;;;;;;5059209;28;20040;-61
2023/01/21 12:13:40;;;;;;;31.20;13.02;;;0.80;99.90;;;;;;5062266;28;20052;-60
2023/01/21 12:16:36;;;;;;;28.45;11.27;;;0.50;99.90;;;;;;5059189;28;20053;-60
2023/01/21 12:19:33;;;;;;;34.33;12.50;;;0.40;99.90;;;;;;5057400;28;20040;-60
2023/01/21 12:22:21;;;;;;;29.67;13.82;;;0.40;99.90;;;;;;5065704;28;20056;-61
2023/01/21 12:24:50;;;;;;;37.30;14.27;;;0.40;99.90;;;;;;5071243;28;20035;-60
2023/01/21 12:27:29;;;;;;;37.28;13.68;;;0.50;99.90;;;;;;5081332;28;20438;-60
2023/01/21 12:30:18;;;;;;;32.53;13.27;;;0.40;99.90;;;;;;5070366;28;20044;-60
2023/01/21 12:32:49;;;;;;;31.95;12.93;;;0.50;99.90;;;;;;5078348;28;20050;-60
2023/01/21 12:35:27;;;;;;;31.10;13.00;;;0.30;99.90;;;;;;5077325;28;20379;-60
2023/01/21 12:38:16;;;;;;;30.25;12.70;;;0.20;99.90;;;;;;5057346;28;20033;-60
2023/01/21 12:40:49;;;;;;;33.10;12.80;;;0.20;99.90;;;;;;5058884;28;20159;-60
2023/01/21 12:43:29;;;;;;;33.00;13.73;;;0.10;99.90;;;;;;5068541;28;20032;-60
2023/01/21 12:46:12;;;;;;;32.85;13.45;;;0.10;99.90;;;;;;5090690;28;20881;-60
2023/01/21 12:48:58;;;;;;;39.03;14.07;;;0.10;99.90;;;;;;5070172;28;20126;-60
2023/01/21 12:51:43;;;;;;;33.22;12.90;;;-0.10;99.90;;;;;;5056702;28;20094;-60
2023/01/21 12:54:36;;;;;;;33.30;12.57;;;0.00;99.90;;;;;;5056136;28;20106;-60